sensor_id;sensor_type;location;lat;lon;timestamp;P1;durP1;ratioP1;P2;durP2;ratioP2
20334;SDS011;10325;51.468;5.804;2023-04-01T00:02:17;1.67;;;0.80;;
20334;SDS011;10325;51.468;5.804;2023-04-01T00:04:47;2.00;;;0.77;;
20334;SDS011;10325;51.468;5.804;2023-04-01T00:07:21;1.60;;;0.70;;
20334;SDS011;10325;51.468;5.804;2023-04-01T00:09:57;2.03;;;1.00;;
20334;SDS011;10325;51.468;5.804;2023-04-01T00:12:27;1.27;;;0.60;;
20334;SDS011;10325;51.468;5.804;2023-04-01T00:14:59;1.57;;;0.60;;
20334;SDS011;10325;51.468;5.804;2023-04-01T00:17:26;1.47;;;0.60;;
20334;SDS011;10325;51.468;5.804;2023-04-01T00:19:58;1.00;;;0.50;;
20334;SDS011;10325;51.468;5.804;2023-04-01T00:22:30;1.77;;;0.60;;
20334;SDS011;10325;51.468;5.804;2023-04-01T00:25:02;1.53;;;0.63;;
20334;SDS011;10325;51.468;5.804;2023-04-01T00:27:34;1.17;;;0.70;;
20334;SDS011;10325;51.468;5.804;2023-04-01T00:30:05;1.37;;;0.50;;
20334;SDS011;10325;51.468;5.804;2023-04-01T00:32:53;2.67;;;0.77;;
20334;SDS011;10325;51.468;5.804;2023-04-01T00:35:26;1.07;;;0.50;;
20334;SDS011;10325;51.468;5.804;2023-04-01T00:37:57;2.57;;;0.53;;
20334;SDS011;10325;51.468;5.804;2023-04-01T00:40:29;2.10;;;0.60;;
20334;SDS011;10325;51.468;5.804;2023-04-01T00:43:13;1.53;;;0.57;;
20334;SDS011;10325;51.468;5.804;2023-04-01T00:45:47;2.80;;;0.80;;
20334;SDS011;10325;51.468;5.804;2023-04-01T00:48:24;2.57;;;0.50;;
20334;SDS011;10325;51.468;5.804;2023-04-01T00:51:06;1.00;;;0.50;;
20334;SDS011;10325;51.468;5.804;2023-04-01T00:53:43;2.00;;;1.13;;
20334;SDS011;10325;51.468;5.804;2023-04-01T00:56:17;1.27;;;0.50;;
20334;SDS011;10325;51.468;5.804;2023-04-01T00:59:03;1.40;;;0.53;;
20334;SDS011;10325;51.468;5.804;2023-04-01T01:01:42;1.23;;;0.50;;
20334;SDS011;10325;51.468;5.804;2023-04-01T01:04:30;1.47;;;0.63;;
20334;SDS011;10325;51.468;5.804;2023-04-01T01:07:10;1.47;;;0.43;;
20334;SDS011;10325;51.468;5.804;2023-04-01T01:10:03;1.73;;;0.60;;
20334;SDS011;10325;51.468;5.804;2023-04-01T01:21:38;0.93;;;0.50;;
20334;SDS011;10325;51.468;5.804;2023-04-01T01:27:17;2.10;;;0.50;;
20334;SDS011;10325;51.468;5.804;2023-04-01T01:29:59;0.50;;;0.47;;
20334;SDS011;10325;51.468;5.804;2023-04-01T01:32:52;3.80;;;0.70;;
20334;SDS011;10325;51.468;5.804;2023-04-01T01:35:54;1.10;;;0.30;;
20334;SDS011;10325;51.468;5.804;2023-04-01T01:38:27;1.03;;;0.40;;
20334;SDS011;10325;51.468;5.804;2023-04-01T01:40:58;1.03;;;0.57;;
20334;SDS011;10325;51.468;5.804;2023-04-01T01:43:30;1.60;;;0.40;;
20334;SDS011;10325;51.468;5.804;2023-04-01T01:46:10;1.17;;;0.57;;
20334;SDS011;10325;51.468;5.804;2023-04-01T01:48:43;1.33;;;0.50;;
20334;SDS011;10325;51.468;5.804;2023-04-01T01:51:16;2.30;;;0.70;;
20334;SDS011;10325;51.468;5.804;2023-04-01T01:54:13;2.03;;;0.70;;
20334;SDS011;10325;51.468;5.804;2023-04-01T01:56:44;1.10;;;0.70;;
20334;SDS011;10325;51.468;5.804;2023-04-01T01:59:24;2.33;;;0.50;;
20334;SDS011;10325;51.468;5.804;2023-04-01T02:01:54;1.10;;;0.40;;
20334;SDS011;10325;51.468;5.804;2023-04-01T02:04:28;1.47;;;0.60;;
20334;SDS011;10325;51.468;5.804;2023-04-01T02:07:04;1.33;;;0.40;;
20334;SDS011;10325;51.468;5.804;2023-04-01T02:09:42;0.97;;;0.63;;
20334;SDS011;10325;51.468;5.804;2023-04-01T02:12:14;1.33;;;0.43;;
20334;SDS011;10325;51.468;5.804;2023-04-01T02:14:46;0.73;;;0.43;;
20334;SDS011;10325;51.468;5.804;2023-04-01T02:17:37;0.97;;;0.40;;
20334;SDS011;10325;51.468;5.804;2023-04-01T02:20:25;1.80;;;0.80;;
20334;SDS011;10325;51.468;5.804;2023-04-01T02:22:55;1.90;;;0.60;;
20334;SDS011;10325;51.468;5.804;2023-04-01T02:25:33;1.00;;;0.70;;
20334;SDS011;10325;51.468;5.804;2023-04-01T02:28:11;0.67;;;0.43;;
20334;SDS011;10325;51.468;5.804;2023-04-01T02:30:43;2.10;;;0.30;;
20334;SDS011;10325;51.468;5.804;2023-04-01T02:33:15;1.23;;;0.50;;
20334;SDS011;10325;51.468;5.804;2023-04-01T02:35:47;1.07;;;0.47;;
20334;SDS011;10325;51.468;5.804;2023-04-01T02:38:23;1.23;;;0.50;;
20334;SDS011;10325;51.468;5.804;2023-04-01T02:40:59;0.93;;;0.43;;
20334;SDS011;10325;51.468;5.804;2023-04-01T02:43:36;1.33;;;0.53;;
20334;SDS011;10325;51.468;5.804;2023-04-01T02:46:07;1.73;;;0.40;;
20334;SDS011;10325;51.468;5.804;2023-04-01T02:48:39;2.13;;;0.53;;
20334;SDS011;10325;51.468;5.804;2023-04-01T02:51:08;0.40;;;0.30;;
20334;SDS011;10325;51.468;5.804;2023-04-01T02:53:39;1.37;;;0.40;;
20334;SDS011;10325;51.468;5.804;2023-04-01T02:56:10;0.87;;;0.43;;
20334;SDS011;10325;51.468;5.804;2023-04-01T02:58:38;0.97;;;0.50;;
20334;SDS011;10325;51.468;5.804;2023-04-01T03:01:08;1.50;;;0.37;;
20334;SDS011;10325;51.468;5.804;2023-04-01T03:03:38;1.03;;;0.47;;
20334;SDS011;10325;51.468;5.804;2023-04-01T03:06:21;1.40;;;0.47;;
20334;SDS011;10325;51.468;5.804;2023-04-01T03:08:53;0.83;;;0.40;;
20334;SDS011;10325;51.468;5.804;2023-04-01T03:11:24;1.13;;;0.77;;
20334;SDS011;10325;51.468;5.804;2023-04-01T03:13:53;0.47;;;0.33;;
20334;SDS011;10325;51.468;5.804;2023-04-01T03:16:24;0.97;;;0.40;;
20334;SDS011;10325;51.468;5.804;2023-04-01T03:18:54;0.83;;;0.40;;
20334;SDS011;10325;51.468;5.804;2023-04-01T03:21:28;0.67;;;0.40;;
20334;SDS011;10325;51.468;5.804;2023-04-01T03:23:59;0.73;;;0.50;;
20334;SDS011;10325;51.468;5.804;2023-04-01T03:26:30;0.40;;;0.30;;
20334;SDS011;10325;51.468;5.804;2023-04-01T03:28:58;0.57;;;0.40;;
20334;SDS011;10325;51.468;5.804;2023-04-01T03:31:30;0.40;;;0.30;;
20334;SDS011;10325;51.468;5.804;2023-04-01T03:34:13;0.73;;;0.30;;
20334;SDS011;10325;51.468;5.804;2023-04-01T03:36:47;0.50;;;0.37;;
20334;SDS011;10325;51.468;5.804;2023-04-01T03:39:14;0.93;;;0.40;;
20334;SDS011;10325;51.468;5.804;2023-04-01T03:41:46;0.77;;;0.40;;
20334;SDS011;10325;51.468;5.804;2023-04-01T03:44:15;2.03;;;0.60;;
20334;SDS011;10325;51.468;5.804;2023-04-01T03:46:43;0.70;;;0.37;;
20334;SDS011;10325;51.468;5.804;2023-04-01T03:49:13;0.30;;;0.30;;
20334;SDS011;10325;51.468;5.804;2023-04-01T03:51:43;1.27;;;0.20;;
20334;SDS011;10325;51.468;5.804;2023-04-01T03:54:14;0.40;;;0.30;;
20334;SDS011;10325;51.468;5.804;2023-04-01T03:56:48;0.73;;;0.30;;
20334;SDS011;10325;51.468;5.804;2023-04-01T03:59:19;0.50;;;0.30;;
20334;SDS011;10325;51.468;5.804;2023-04-01T04:01:46;0.20;;;0.20;;
20334;SDS011;10325;51.468;5.804;2023-04-01T04:04:15;0.40;;;0.33;;
20334;SDS011;10325;51.468;5.804;2023-04-01T04:06:48;0.83;;;0.53;;
20334;SDS011;10325;51.468;5.804;2023-04-01T04:09:16;0.60;;;0.30;;
20334;SDS011;10325;51.468;5.804;2023-04-01T04:11:47;2.87;;;0.50;;
20334;SDS011;10325;51.468;5.804;2023-04-01T04:14:22;0.60;;;0.43;;
20334;SDS011;10325;51.468;5.804;2023-04-01T04:16:54;1.90;;;0.57;;
20334;SDS011;10325;51.468;5.804;2023-04-01T04:19:22;0.30;;;0.30;;
20334;SDS011;10325;51.468;5.804;2023-04-01T04:21:54;0.73;;;0.67;;
20334;SDS011;10325;51.468;5.804;2023-04-01T04:24:26;1.67;;;0.50;;
20334;SDS011;10325;51.468;5.804;2023-04-01T04:26:57;0.83;;;0.37;;
20334;SDS011;10325;51.468;5.804;2023-04-01T04:29:29;0.90;;;0.40;;
20334;SDS011;10325;51.468;5.804;2023-04-01T04:32:01;0.70;;;0.47;;
20334;SDS011;10325;51.468;5.804;2023-04-01T04:34:31;0.77;;;0.40;;
20334;SDS011;10325;51.468;5.804;2023-04-01T04:37:02;0.57;;;0.30;;
20334;SDS011;10325;51.468;5.804;2023-04-01T04:39:31;1.97;;;0.47;;
20334;SDS011;10325;51.468;5.804;2023-04-01T04:42:03;1.00;;;0.50;;
20334;SDS011;10325;51.468;5.804;2023-04-01T04:44:33;0.53;;;0.40;;
20334;SDS011;10325;51.468;5.804;2023-04-01T04:47:02;0.50;;;0.40;;
20334;SDS011;10325;51.468;5.804;2023-04-01T04:49:35;0.60;;;0.30;;
20334;SDS011;10325;51.468;5.804;2023-04-01T04:52:09;0.40;;;0.30;;
20334;SDS011;10325;51.468;5.804;2023-04-01T04:54:41;0.77;;;0.40;;
20334;SDS011;10325;51.468;5.804;2023-04-01T04:57:10;1.70;;;0.50;;
20334;SDS011;10325;51.468;5.804;2023-04-01T04:59:39;0.63;;;0.40;;
20334;SDS011;10325;51.468;5.804;2023-04-01T05:02:11;0.67;;;0.40;;
20334;SDS011;10325;51.468;5.804;2023-04-01T05:04:42;0.43;;;0.30;;
20334;SDS011;10325;51.468;5.804;2023-04-01T05:07:11;0.37;;;0.30;;
20334;SDS011;10325;51.468;5.804;2023-04-01T05:09:43;0.40;;;0.30;;
20334;SDS011;10325;51.468;5.804;2023-04-01T05:12:15;2.10;;;0.50;;
20334;SDS011;10325;51.468;5.804;2023-04-01T05:14:44;1.17;;;0.77;;
20334;SDS011;10325;51.468;5.804;2023-04-01T05:17:15;0.40;;;0.30;;
20334;SDS011;10325;51.468;5.804;2023-04-01T05:19:44;1.80;;;0.40;;
20334;SDS011;10325;51.468;5.804;2023-04-01T05:22:14;0.87;;;0.30;;
20334;SDS011;10325;51.468;5.804;2023-04-01T05:24:45;0.87;;;0.87;;
20334;SDS011;10325;51.468;5.804;2023-04-01T05:27:31;0.40;;;0.40;;
20334;SDS011;10325;51.468;5.804;2023-04-01T05:30:08;0.90;;;0.60;;
20334;SDS011;10325;51.468;5.804;2023-04-01T05:32:51;0.73;;;0.30;;
20334;SDS011;10325;51.468;5.804;2023-04-01T05:35:38;0.50;;;0.50;;
20334;SDS011;10325;51.468;5.804;2023-04-01T05:38:32;1.00;;;0.57;;
20334;SDS011;10325;51.468;5.804;2023-04-01T05:41:07;0.60;;;0.60;;
20334;SDS011;10325;51.468;5.804;2023-04-01T05:43:39;0.87;;;0.60;;
20334;SDS011;10325;51.468;5.804;2023-04-01T05:46:15;0.30;;;0.30;;
20334;SDS011;10325;51.468;5.804;2023-04-01T05:48:59;1.43;;;1.00;;
20334;SDS011;10325;51.468;5.804;2023-04-01T05:51:30;0.70;;;0.40;;
20334;SDS011;10325;51.468;5.804;2023-04-01T05:54:04;1.60;;;0.60;;
20334;SDS011;10325;51.468;5.804;2023-04-01T05:56:40;0.57;;;0.43;;
20334;SDS011;10325;51.468;5.804;2023-04-01T05:59:13;0.50;;;0.50;;
20334;SDS011;10325;51.468;5.804;2023-04-01T06:01:46;0.77;;;0.60;;
20334;SDS011;10325;51.468;5.804;2023-04-01T06:04:14;0.87;;;0.67;;
20334;SDS011;10325;51.468;5.804;2023-04-01T06:06:46;0.57;;;0.57;;
20334;SDS011;10325;51.468;5.804;2023-04-01T06:09:29;0.40;;;0.40;;
20334;SDS011;10325;51.468;5.804;2023-04-01T06:21:29;2.00;;;0.50;;
20334;SDS011;10325;51.468;5.804;2023-04-01T06:24:34;0.93;;;0.70;;
20334;SDS011;10325;51.468;5.804;2023-04-01T06:33:35;1.07;;;0.50;;
20334;SDS011;10325;51.468;5.804;2023-04-01T06:45:10;0.40;;;0.40;;
20334;SDS011;10325;51.468;5.804;2023-04-01T06:54:26;1.10;;;0.50;;
20334;SDS011;10325;51.468;5.804;2023-04-01T07:00:04;0.87;;;0.50;;
20334;SDS011;10325;51.468;5.804;2023-04-01T07:06:20;15.00;;;2.70;;
20334;SDS011;10325;51.468;5.804;2023-04-01T07:09:16;6.33;;;2.13;;
20334;SDS011;10325;51.468;5.804;2023-04-01T07:11:53;5.80;;;2.40;;
20334;SDS011;10325;51.468;5.804;2023-04-01T07:14:39;5.20;;;2.40;;
20334;SDS011;10325;51.468;5.804;2023-04-01T07:17:27;10.43;;;2.37;;
20334;SDS011;10325;51.468;5.804;2023-04-01T07:20:15;4.57;;;2.53;;
20334;SDS011;10325;51.468;5.804;2023-04-01T07:23:32;5.37;;;2.00;;
20334;SDS011;10325;51.468;5.804;2023-04-01T07:26:15;6.93;;;2.20;;
20334;SDS011;10325;51.468;5.804;2023-04-01T07:28:51;4.63;;;2.47;;
20334;SDS011;10325;51.468;5.804;2023-04-01T07:37:41;4.13;;;1.90;;
20334;SDS011;10325;51.468;5.804;2023-04-01T07:43:43;12.20;;;1.70;;
20334;SDS011;10325;51.468;5.804;2023-04-01T07:49:56;4.33;;;1.50;;
20334;SDS011;10325;51.468;5.804;2023-04-01T07:55:37;3.30;;;1.40;;
20334;SDS011;10325;51.468;5.804;2023-04-01T08:01:49;2.43;;;1.50;;
20334;SDS011;10325;51.468;5.804;2023-04-01T08:20:32;3.77;;;1.67;;
20334;SDS011;10325;51.468;5.804;2023-04-01T08:29:13;3.33;;;1.00;;
20334;SDS011;10325;51.468;5.804;2023-04-01T08:32:00;4.77;;;1.10;;
20334;SDS011;10325;51.468;5.804;2023-04-01T08:34:38;2.20;;;1.40;;
20334;SDS011;10325;51.468;5.804;2023-04-01T08:37:17;4.63;;;1.50;;
20334;SDS011;10325;51.468;5.804;2023-04-01T08:40:10;2.20;;;1.20;;
20334;SDS011;10325;51.468;5.804;2023-04-01T08:43:09;3.87;;;1.53;;
20334;SDS011;10325;51.468;5.804;2023-04-01T08:46:11;2.30;;;1.40;;
20334;SDS011;10325;51.468;5.804;2023-04-01T08:58:11;3.90;;;1.63;;
20334;SDS011;10325;51.468;5.804;2023-04-01T09:01:09;4.23;;;1.40;;
20334;SDS011;10325;51.468;5.804;2023-04-01T09:07:27;2.97;;;1.17;;
20334;SDS011;10325;51.468;5.804;2023-04-01T09:16:20;3.03;;;2.07;;
20334;SDS011;10325;51.468;5.804;2023-04-01T09:19:24;4.63;;;1.60;;
20334;SDS011;10325;51.468;5.804;2023-04-01T09:22:09;3.20;;;1.60;;
20334;SDS011;10325;51.468;5.804;2023-04-01T09:40:31;3.83;;;1.97;;
20334;SDS011;10325;51.468;5.804;2023-04-01T09:46:26;6.77;;;2.10;;
20334;SDS011;10325;51.468;5.804;2023-04-01T09:55:33;3.53;;;2.03;;
20334;SDS011;10325;51.468;5.804;2023-04-01T09:58:48;101.40;;;22.97;;
20334;SDS011;10325;51.468;5.804;2023-04-01T10:29:41;116.97;;;29.10;;
20334;SDS011;10325;51.468;5.804;2023-04-01T10:35:29;101.83;;;28.30;;
20334;SDS011;10325;51.468;5.804;2023-04-01T10:38:40;78.23;;;23.27;;
20334;SDS011;10325;51.468;5.804;2023-04-01T10:48:07;72.47;;;20.73;;
20334;SDS011;10325;51.468;5.804;2023-04-01T10:51:01;69.53;;;19.87;;
20334;SDS011;10325;51.468;5.804;2023-04-01T10:57:01;66.50;;;18.30;;
20334;SDS011;10325;51.468;5.804;2023-04-01T11:12:03;48.00;;;13.87;;
20334;SDS011;10325;51.468;5.804;2023-04-01T11:15:21;48.20;;;14.67;;
20334;SDS011;10325;51.468;5.804;2023-04-01T11:27:24;37.90;;;11.93;;
20334;SDS011;10325;51.468;5.804;2023-04-01T11:33:27;39.20;;;11.17;;
20334;SDS011;10325;51.468;5.804;2023-04-01T11:42:28;28.53;;;9.63;;
20334;SDS011;10325;51.468;5.804;2023-04-01T11:51:29;25.13;;;8.53;;
20334;SDS011;10325;51.468;5.804;2023-04-01T11:57:51;24.60;;;7.53;;
20334;SDS011;10325;51.468;5.804;2023-04-01T12:00:43;21.80;;;7.10;;
20334;SDS011;10325;51.468;5.804;2023-04-01T12:09:23;15.97;;;6.57;;
20334;SDS011;10325;51.468;5.804;2023-04-01T12:18:40;19.03;;;6.63;;
20334;SDS011;10325;51.468;5.804;2023-04-01T12:21:38;11.40;;;5.23;;
20334;SDS011;10325;51.468;5.804;2023-04-01T12:30:55;12.13;;;4.57;;
20334;SDS011;10325;51.468;5.804;2023-04-01T12:33:53;9.97;;;4.53;;
20334;SDS011;10325;51.468;5.804;2023-04-01T12:36:57;11.53;;;4.50;;
20334;SDS011;10325;51.468;5.804;2023-04-01T12:42:59;10.03;;;4.60;;
20334;SDS011;10325;51.468;5.804;2023-04-01T12:49:09;10.30;;;4.27;;
20334;SDS011;10325;51.468;5.804;2023-04-01T12:51:49;8.07;;;3.40;;
20334;SDS011;10325;51.468;5.804;2023-04-01T13:03:53;6.97;;;2.50;;
20334;SDS011;10325;51.468;5.804;2023-04-01T13:06:43;6.93;;;2.70;;
20334;SDS011;10325;51.468;5.804;2023-04-01T13:09:31;6.40;;;2.80;;
20334;SDS011;10325;51.468;5.804;2023-04-01T13:12:53;6.63;;;2.73;;
20334;SDS011;10325;51.468;5.804;2023-04-01T13:18:58;9.20;;;2.83;;
20334;SDS011;10325;51.468;5.804;2023-04-01T13:24:42;9.90;;;3.03;;
20334;SDS011;10325;51.468;5.804;2023-04-01T13:27:42;5.13;;;2.33;;
20334;SDS011;10325;51.468;5.804;2023-04-01T13:33:29;9.87;;;2.80;;
20334;SDS011;10325;51.468;5.804;2023-04-01T13:36:38;10.00;;;3.13;;
20334;SDS011;10325;51.468;5.804;2023-04-01T13:42:46;8.00;;;2.57;;
20334;SDS011;10325;51.468;5.804;2023-04-01T13:45:55;8.10;;;2.93;;
20334;SDS011;10325;51.468;5.804;2023-04-01T13:58:10;7.93;;;2.60;;
20334;SDS011;10325;51.468;5.804;2023-04-01T14:04:16;10.73;;;3.07;;
20334;SDS011;10325;51.468;5.804;2023-04-01T14:07:18;4.90;;;2.63;;
20334;SDS011;10325;51.468;5.804;2023-04-01T14:10:13;7.17;;;2.67;;
20334;SDS011;10325;51.468;5.804;2023-04-01T14:13:23;4.93;;;2.43;;
20334;SDS011;10325;51.468;5.804;2023-04-01T14:16:27;7.83;;;2.80;;
20334;SDS011;10325;51.468;5.804;2023-04-01T14:19:21;7.27;;;2.40;;
20334;SDS011;10325;51.468;5.804;2023-04-01T14:22:24;5.67;;;2.63;;
20334;SDS011;10325;51.468;5.804;2023-04-01T14:49:28;27.20;;;4.03;;
20334;SDS011;10325;51.468;5.804;2023-04-01T14:52:32;28.43;;;4.63;;
20334;SDS011;10325;51.468;5.804;2023-04-01T14:55:27;19.93;;;4.17;;
20334;SDS011;10325;51.468;5.804;2023-04-01T14:58:16;10.40;;;3.03;;
20334;SDS011;10325;51.468;5.804;2023-04-01T15:04:08;8.30;;;3.10;;
20334;SDS011;10325;51.468;5.804;2023-04-01T15:06:56;10.13;;;3.40;;
20334;SDS011;10325;51.468;5.804;2023-04-01T15:09:45;6.40;;;2.77;;
20334;SDS011;10325;51.468;5.804;2023-04-01T15:12:49;9.20;;;2.63;;
20334;SDS011;10325;51.468;5.804;2023-04-01T15:28:22;4.70;;;2.40;;
20334;SDS011;10325;51.468;5.804;2023-04-01T15:36:55;3.87;;;2.00;;
20334;SDS011;10325;51.468;5.804;2023-04-01T15:40:11;6.20;;;2.10;;
20334;SDS011;10325;51.468;5.804;2023-04-01T15:42:59;5.57;;;2.20;;
20334;SDS011;10325;51.468;5.804;2023-04-01T15:46:30;7.97;;;1.87;;
20334;SDS011;10325;51.468;5.804;2023-04-01T16:12:53;5.07;;;2.00;;
20334;SDS011;10325;51.468;5.804;2023-04-01T16:15:51;3.30;;;2.27;;
20334;SDS011;10325;51.468;5.804;2023-04-01T16:27:53;2.77;;;2.00;;
20334;SDS011;10325;51.468;5.804;2023-04-01T16:42:31;5.13;;;2.00;;
20334;SDS011;10325;51.468;5.804;2023-04-01T16:45:36;2.97;;;2.00;;
20334;SDS011;10325;51.468;5.804;2023-04-01T16:57:18;4.10;;;1.90;;
20334;SDS011;10325;51.468;5.804;2023-04-01T17:00:30;3.73;;;1.67;;
20334;SDS011;10325;51.468;5.804;2023-04-01T17:03:43;2.47;;;1.77;;
20334;SDS011;10325;51.468;5.804;2023-04-01T17:11:59;3.33;;;2.30;;
20334;SDS011;10325;51.468;5.804;2023-04-01T17:15:25;3.33;;;2.03;;
20334;SDS011;10325;51.468;5.804;2023-04-01T17:18:28;5.50;;;2.43;;
20334;SDS011;10325;51.468;5.804;2023-04-01T17:21:29;2.80;;;2.13;;
20334;SDS011;10325;51.468;5.804;2023-04-01T17:33:22;7.57;;;3.40;;
20334;SDS011;10325;51.468;5.804;2023-04-01T17:36:19;5.63;;;4.03;;
20334;SDS011;10325;51.468;5.804;2023-04-01T17:39:08;8.33;;;4.20;;
20334;SDS011;10325;51.468;5.804;2023-04-01T17:42:30;7.67;;;4.10;;
20334;SDS011;10325;51.468;5.804;2023-04-01T17:44:57;8.73;;;4.23;;
20334;SDS011;10325;51.468;5.804;2023-04-01T18:03:44;11.10;;;5.77;;
20334;SDS011;10325;51.468;5.804;2023-04-01T18:25:01;8.30;;;5.63;;
20334;SDS011;10325;51.468;5.804;2023-04-01T18:27:50;8.00;;;5.40;;
20334;SDS011;10325;51.468;5.804;2023-04-01T18:30:42;10.37;;;5.73;;
20334;SDS011;10325;51.468;5.804;2023-04-01T18:34:02;10.00;;;4.60;;
20334;SDS011;10325;51.468;5.804;2023-04-01T18:37:28;6.07;;;4.47;;
20334;SDS011;10325;51.468;5.804;2023-04-01T18:43:30;6.73;;;4.03;;
20334;SDS011;10325;51.468;5.804;2023-04-01T18:49:40;9.27;;;4.57;;
20334;SDS011;10325;51.468;5.804;2023-04-01T18:52:45;10.53;;;4.90;;
20334;SDS011;10325;51.468;5.804;2023-04-01T19:01:31;7.47;;;4.30;;
20334;SDS011;10325;51.468;5.804;2023-04-01T19:04:41;6.20;;;4.10;;
20334;SDS011;10325;51.468;5.804;2023-04-01T19:21:42;4.47;;;3.13;;
20334;SDS011;10325;51.468;5.804;2023-04-01T19:24:51;4.70;;;3.57;;
20334;SDS011;10325;51.468;5.804;2023-04-01T19:27:46;5.30;;;2.93;;
20334;SDS011;10325;51.468;5.804;2023-04-01T19:33:52;3.37;;;2.50;;
20334;SDS011;10325;51.468;5.804;2023-04-01T19:42:32;5.53;;;2.87;;
20334;SDS011;10325;51.468;5.804;2023-04-01T19:51:00;4.20;;;2.87;;
20334;SDS011;10325;51.468;5.804;2023-04-01T19:54:38;4.87;;;2.63;;
20334;SDS011;10325;51.468;5.804;2023-04-01T20:00:02;4.13;;;2.80;;
20334;SDS011;10325;51.468;5.804;2023-04-01T20:08:45;3.30;;;2.47;;
20334;SDS011;10325;51.468;5.804;2023-04-01T20:14:35;4.87;;;2.23;;
20334;SDS011;10325;51.468;5.804;2023-04-01T20:17:18;4.27;;;2.60;;
20334;SDS011;10325;51.468;5.804;2023-04-01T20:25:32;2.70;;;2.10;;
20334;SDS011;10325;51.468;5.804;2023-04-01T20:28:14;4.67;;;3.00;;
20334;SDS011;10325;51.468;5.804;2023-04-01T20:34:02;2.43;;;2.23;;
20334;SDS011;10325;51.468;5.804;2023-04-01T20:37:09;3.43;;;2.40;;
20334;SDS011;10325;51.468;5.804;2023-04-01T20:46:27;3.50;;;2.27;;
20334;SDS011;10325;51.468;5.804;2023-04-01T20:49:30;2.50;;;2.30;;
20334;SDS011;10325;51.468;5.804;2023-04-01T20:52:24;5.17;;;2.17;;
20334;SDS011;10325;51.468;5.804;2023-04-01T20:55:06;4.20;;;2.10;;
20334;SDS011;10325;51.468;5.804;2023-04-01T20:58:09;4.40;;;2.40;;
20334;SDS011;10325;51.468;5.804;2023-04-01T21:04:25;2.93;;;2.50;;
20334;SDS011;10325;51.468;5.804;2023-04-01T21:10:01;2.37;;;1.90;;
20334;SDS011;10325;51.468;5.804;2023-04-01T21:19:33;3.07;;;1.80;;
20334;SDS011;10325;51.468;5.804;2023-04-01T21:22:23;2.90;;;1.90;;
20334;SDS011;10325;51.468;5.804;2023-04-01T21:28:20;12.13;;;2.10;;
20334;SDS011;10325;51.468;5.804;2023-04-01T21:34:31;2.13;;;1.70;;
20334;SDS011;10325;51.468;5.804;2023-04-01T21:49:21;1.87;;;1.50;;
20334;SDS011;10325;51.468;5.804;2023-04-01T22:10:49;2.27;;;1.50;;
20334;SDS011;10325;51.468;5.804;2023-04-01T22:19:37;1.53;;;1.20;;
20334;SDS011;10325;51.468;5.804;2023-04-01T22:22:29;1.90;;;1.30;;
20334;SDS011;10325;51.468;5.804;2023-04-01T22:25:17;1.90;;;1.60;;
20334;SDS011;10325;51.468;5.804;2023-04-01T22:28:36;3.27;;;1.40;;
20334;SDS011;10325;51.468;5.804;2023-04-01T22:31:12;2.00;;;1.57;;
20334;SDS011;10325;51.468;5.804;2023-04-01T22:33:56;1.40;;;1.20;;
20334;SDS011;10325;51.468;5.804;2023-04-01T22:36:44;1.30;;;1.07;;
20334;SDS011;10325;51.468;5.804;2023-04-01T22:53:53;1.70;;;1.20;;
20334;SDS011;10325;51.468;5.804;2023-04-01T22:56:53;1.20;;;1.10;;
20334;SDS011;10325;51.468;5.804;2023-04-01T22:59:43;1.00;;;0.87;;
20334;SDS011;10325;51.468;5.804;2023-04-01T23:02:28;2.27;;;1.27;;
20334;SDS011;10325;51.468;5.804;2023-04-01T23:05:04;1.47;;;1.37;;
20334;SDS011;10325;51.468;5.804;2023-04-01T23:08:00;2.10;;;1.00;;
20334;SDS011;10325;51.468;5.804;2023-04-01T23:11:08;1.20;;;1.10;;
20334;SDS011;10325;51.468;5.804;2023-04-01T23:16:54;1.17;;;1.00;;
20334;SDS011;10325;51.468;5.804;2023-04-01T23:26:08;1.50;;;1.10;;
20334;SDS011;10325;51.468;5.804;2023-04-01T23:29:01;0.93;;;0.90;;
20334;SDS011;10325;51.468;5.804;2023-04-01T23:31:36;1.27;;;1.00;;
20334;SDS011;10325;51.468;5.804;2023-04-01T23:37:13;0.80;;;0.80;;
20334;SDS011;10325;51.468;5.804;2023-04-01T23:39:56;0.97;;;0.87;;
20334;SDS011;10325;51.468;5.804;2023-04-01T23:42:38;0.80;;;0.80;;
20334;SDS011;10325;51.468;5.804;2023-04-01T23:45:16;1.27;;;1.17;;
20334;SDS011;10325;51.468;5.804;2023-04-01T23:47:49;1.50;;;0.83;;
20334;SDS011;10325;51.468;5.804;2023-04-01T23:50:22;0.97;;;0.90;;
20334;SDS011;10325;51.468;5.804;2023-04-01T23:52:59;0.60;;;0.60;;
20334;SDS011;10325;51.468;5.804;2023-04-01T23:55:38;0.97;;;0.93;;
20334;SDS011;10325;51.468;5.804;2023-04-01T23:58:37;0.70;;;0.70;;
